67CO weather

Highline Farm Airstrip
Bracewell, Colorado, United States

Public forecast

Using degrees Fahrenheit for public forecast. Weather courtesy of forecast.io.

Closest aviation weather report (METAR) to Highline Farm Airstrip

Closest report is Greeley–Weld County Airport, 8.5 nm (15.7 km) ESE. Retrieved 2020/02/19 05:56 UTC (45 minutes ago):

KGXY 190556Z AUTO 04005KT 10SM CLR M04/M07 A3021 RMK AO2 SLP273 T10441072 10017 21056 50004 FZRANO

Closest aviation forecast (TAF) to Highline Farm Airstrip

Closest forecast is Rocky Mountain Metropolitan Airport, 36.5 nm (67.7 km) SSW. Retrieved 2020/02/19 06:30 UTC (11 minutes ago):

TAF KBJC 190527Z 1906/2006 27006KT P6SM FEW050 SCT110 BKN220 FM191100 36005KT P6SM SCT006 OVC012 FM191900 35010KT P6SM SCT012 BKN020 FM192200 03011KT 2SM -SN BR OVC011